< < Back
Terminal Aerodrome Forecast


Current Version              Previous Versions:   1  2  3  4  5  6  7  8  9  

Terminal Aerodrome Forecast

379
FTUS42 KMLB 190909 AAA
TAFMCO
TAF AMD
KMCO 190909Z 1909/2006 00000KT P6SM FEW180 OVC300
     FM191500 18010KT P6SM VCSH SCT030 BKN250
     FM192000 22012KT P6SM VCTS SCT040CB BKN120
     FM200000 28007KT P6SM FEW040 BKN250=



Latest METAR

716
SAUS70 KWBC 191400 RRH
MTRMCO
METAR KMCO 191353Z 14008KT 10SM FEW250 BKN300 28/22 A2993 RMK AO2 SLP132
T02780222


USA.gov is the U.S. government's official web portal to all federal, state and local government web resources and services.